sensor_id;sensor_type;location;lat;lon;timestamp;P1;durP1;ratioP1;P2;durP2;ratioP2
13493;SDS011;6819;50.886;4.332;2022-07-22T00:01:02;13.02;;;3.47;;
13493;SDS011;6819;50.886;4.332;2022-07-22T00:03:28;10.77;;;2.72;;
13493;SDS011;6819;50.886;4.332;2022-07-22T00:05:54;12.25;;;3.30;;
13493;SDS011;6819;50.886;4.332;2022-07-22T00:08:20;10.52;;;3.08;;
13493;SDS011;6819;50.886;4.332;2022-07-22T00:10:46;11.38;;;2.88;;
13493;SDS011;6819;50.886;4.332;2022-07-22T00:13:12;13.07;;;2.72;;
13493;SDS011;6819;50.886;4.332;2022-07-22T00:15:38;12.02;;;3.25;;
13493;SDS011;6819;50.886;4.332;2022-07-22T00:18:04;11.57;;;3.30;;
13493;SDS011;6819;50.886;4.332;2022-07-22T00:20:30;10.45;;;2.72;;
13493;SDS011;6819;50.886;4.332;2022-07-22T00:22:56;10.77;;;3.20;;
13493;SDS011;6819;50.886;4.332;2022-07-22T00:25:22;8.43;;;2.63;;
13493;SDS011;6819;50.886;4.332;2022-07-22T00:27:48;9.98;;;2.88;;
13493;SDS011;6819;50.886;4.332;2022-07-22T00:30:14;11.05;;;3.28;;
13493;SDS011;6819;50.886;4.332;2022-07-22T00:32:40;8.68;;;2.72;;
13493;SDS011;6819;50.886;4.332;2022-07-22T00:35:07;9.23;;;3.15;;
13493;SDS011;6819;50.886;4.332;2022-07-22T00:37:33;8.98;;;2.35;;
13493;SDS011;6819;50.886;4.332;2022-07-22T00:39:59;9.65;;;2.95;;
13493;SDS011;6819;50.886;4.332;2022-07-22T00:42:25;6.75;;;2.60;;
13493;SDS011;6819;50.886;4.332;2022-07-22T00:44:51;9.43;;;2.92;;
13493;SDS011;6819;50.886;4.332;2022-07-22T00:47:17;11.93;;;3.20;;
13493;SDS011;6819;50.886;4.332;2022-07-22T00:49:43;7.65;;;3.42;;
13493;SDS011;6819;50.886;4.332;2022-07-22T00:52:09;16.13;;;3.22;;
13493;SDS011;6819;50.886;4.332;2022-07-22T00:54:36;8.52;;;2.95;;
13493;SDS011;6819;50.886;4.332;2022-07-22T00:57:02;10.93;;;3.08;;
13493;SDS011;6819;50.886;4.332;2022-07-22T00:59:28;5.85;;;2.90;;
13493;SDS011;6819;50.886;4.332;2022-07-22T01:01:54;17.15;;;3.22;;
13493;SDS011;6819;50.886;4.332;2022-07-22T01:04:20;16.73;;;3.17;;
13493;SDS011;6819;50.886;4.332;2022-07-22T01:06:46;11.48;;;3.17;;
13493;SDS011;6819;50.886;4.332;2022-07-22T01:09:13;10.38;;;2.58;;
13493;SDS011;6819;50.886;4.332;2022-07-22T01:11:39;11.10;;;3.10;;
13493;SDS011;6819;50.886;4.332;2022-07-22T01:14:05;5.82;;;2.63;;
13493;SDS011;6819;50.886;4.332;2022-07-22T01:16:31;21.33;;;3.60;;
13493;SDS011;6819;50.886;4.332;2022-07-22T01:18:57;12.07;;;3.60;;
13493;SDS011;6819;50.886;4.332;2022-07-22T01:21:23;11.27;;;3.38;;
13493;SDS011;6819;50.886;4.332;2022-07-22T01:23:49;10.85;;;3.15;;
13493;SDS011;6819;50.886;4.332;2022-07-22T01:26:16;12.00;;;3.63;;
13493;SDS011;6819;50.886;4.332;2022-07-22T01:28:42;10.52;;;3.50;;
13493;SDS011;6819;50.886;4.332;2022-07-22T01:31:08;11.38;;;3.17;;
13493;SDS011;6819;50.886;4.332;2022-07-22T01:33:35;11.52;;;3.03;;
13493;SDS011;6819;50.886;4.332;2022-07-22T01:36:01;11.55;;;3.00;;
13493;SDS011;6819;50.886;4.332;2022-07-22T01:38:27;8.80;;;3.22;;
13493;SDS011;6819;50.886;4.332;2022-07-22T01:40:53;15.43;;;3.15;;
13493;SDS011;6819;50.886;4.332;2022-07-22T01:43:19;14.13;;;3.40;;
13493;SDS011;6819;50.886;4.332;2022-07-22T01:45:47;10.80;;;3.30;;
13493;SDS011;6819;50.886;4.332;2022-07-22T01:48:13;10.02;;;3.25;;
13493;SDS011;6819;50.886;4.332;2022-07-22T01:50:40;9.25;;;3.15;;
13493;SDS011;6819;50.886;4.332;2022-07-22T01:53:06;11.30;;;3.03;;
13493;SDS011;6819;50.886;4.332;2022-07-22T01:55:32;11.65;;;3.40;;
13493;SDS011;6819;50.886;4.332;2022-07-22T01:57:58;14.02;;;3.40;;
13493;SDS011;6819;50.886;4.332;2022-07-22T02:00:25;8.40;;;3.15;;
13493;SDS011;6819;50.886;4.332;2022-07-22T02:02:51;7.43;;;3.20;;
13493;SDS011;6819;50.886;4.332;2022-07-22T02:05:17;6.45;;;2.70;;
13493;SDS011;6819;50.886;4.332;2022-07-22T02:07:43;5.20;;;2.53;;
13493;SDS011;6819;50.886;4.332;2022-07-22T02:10:09;8.02;;;3.13;;
13493;SDS011;6819;50.886;4.332;2022-07-22T02:12:35;8.95;;;2.65;;
13493;SDS011;6819;50.886;4.332;2022-07-22T02:15:01;7.82;;;2.80;;
13493;SDS011;6819;50.886;4.332;2022-07-22T02:17:27;10.30;;;2.92;;
13493;SDS011;6819;50.886;4.332;2022-07-22T02:19:53;9.23;;;2.70;;
13493;SDS011;6819;50.886;4.332;2022-07-22T02:22:19;9.93;;;2.90;;
13493;SDS011;6819;50.886;4.332;2022-07-22T02:24:45;14.82;;;3.00;;
13493;SDS011;6819;50.886;4.332;2022-07-22T02:27:11;6.45;;;2.63;;
13493;SDS011;6819;50.886;4.332;2022-07-22T02:29:37;6.95;;;2.65;;
13493;SDS011;6819;50.886;4.332;2022-07-22T02:32:04;11.70;;;4.05;;
13493;SDS011;6819;50.886;4.332;2022-07-22T02:34:30;10.85;;;3.40;;
13493;SDS011;6819;50.886;4.332;2022-07-22T02:36:56;9.63;;;3.28;;
13493;SDS011;6819;50.886;4.332;2022-07-22T02:39:22;6.97;;;3.00;;
13493;SDS011;6819;50.886;4.332;2022-07-22T02:41:48;7.65;;;3.00;;
13493;SDS011;6819;50.886;4.332;2022-07-22T02:44:14;9.57;;;2.92;;
13493;SDS011;6819;50.886;4.332;2022-07-22T02:46:40;5.22;;;2.83;;
13493;SDS011;6819;50.886;4.332;2022-07-22T02:49:06;7.18;;;3.28;;
13493;SDS011;6819;50.886;4.332;2022-07-22T02:51:32;6.47;;;2.75;;
13493;SDS011;6819;50.886;4.332;2022-07-22T02:53:58;8.07;;;2.85;;
13493;SDS011;6819;50.886;4.332;2022-07-22T02:56:24;6.63;;;2.78;;
13493;SDS011;6819;50.886;4.332;2022-07-22T02:58:50;7.95;;;3.03;;
13493;SDS011;6819;50.886;4.332;2022-07-22T03:01:18;4.93;;;2.55;;
13493;SDS011;6819;50.886;4.332;2022-07-22T03:03:45;5.57;;;2.75;;
13493;SDS011;6819;50.886;4.332;2022-07-22T03:06:11;11.05;;;3.30;;
13493;SDS011;6819;50.886;4.332;2022-07-22T03:08:37;11.88;;;3.03;;
13493;SDS011;6819;50.886;4.332;2022-07-22T03:11:04;6.38;;;2.67;;
13493;SDS011;6819;50.886;4.332;2022-07-22T03:13:30;12.18;;;3.30;;
13493;SDS011;6819;50.886;4.332;2022-07-22T03:15:56;8.73;;;2.83;;
13493;SDS011;6819;50.886;4.332;2022-07-22T03:18:22;11.95;;;3.40;;
13493;SDS011;6819;50.886;4.332;2022-07-22T03:20:48;7.03;;;2.95;;
13493;SDS011;6819;50.886;4.332;2022-07-22T03:23:14;4.85;;;2.60;;
13493;SDS011;6819;50.886;4.332;2022-07-22T03:25:40;8.90;;;3.30;;
13493;SDS011;6819;50.886;4.332;2022-07-22T03:28:07;11.05;;;3.00;;
13493;SDS011;6819;50.886;4.332;2022-07-22T03:30:33;11.43;;;3.42;;
13493;SDS011;6819;50.886;4.332;2022-07-22T03:32:59;8.38;;;2.83;;
13493;SDS011;6819;50.886;4.332;2022-07-22T03:35:25;5.65;;;3.25;;
13493;SDS011;6819;50.886;4.332;2022-07-22T03:37:51;7.53;;;2.80;;
13493;SDS011;6819;50.886;4.332;2022-07-22T03:40:17;8.13;;;3.00;;
13493;SDS011;6819;50.886;4.332;2022-07-22T03:42:43;9.80;;;3.28;;
13493;SDS011;6819;50.886;4.332;2022-07-22T03:45:09;9.55;;;3.35;;
13493;SDS011;6819;50.886;4.332;2022-07-22T03:47:36;10.18;;;3.53;;
13493;SDS011;6819;50.886;4.332;2022-07-22T03:50:02;10.45;;;3.33;;
13493;SDS011;6819;50.886;4.332;2022-07-22T03:52:29;9.63;;;3.15;;
13493;SDS011;6819;50.886;4.332;2022-07-22T03:54:55;9.55;;;3.38;;
13493;SDS011;6819;50.886;4.332;2022-07-22T03:57:21;10.07;;;3.70;;
13493;SDS011;6819;50.886;4.332;2022-07-22T03:59:47;8.52;;;3.20;;
13493;SDS011;6819;50.886;4.332;2022-07-22T04:02:13;11.55;;;4.07;;
13493;SDS011;6819;50.886;4.332;2022-07-22T04:04:39;9.93;;;3.70;;
13493;SDS011;6819;50.886;4.332;2022-07-22T04:07:05;11.90;;;3.53;;
13493;SDS011;6819;50.886;4.332;2022-07-22T04:09:31;11.45;;;3.83;;
13493;SDS011;6819;50.886;4.332;2022-07-22T04:11:57;11.40;;;3.53;;
13493;SDS011;6819;50.886;4.332;2022-07-22T04:14:24;9.10;;;4.10;;
13493;SDS011;6819;50.886;4.332;2022-07-22T04:16:50;8.48;;;4.10;;
13493;SDS011;6819;50.886;4.332;2022-07-22T04:19:16;8.18;;;3.33;;
13493;SDS011;6819;50.886;4.332;2022-07-22T04:21:42;8.30;;;3.67;;
13493;SDS011;6819;50.886;4.332;2022-07-22T04:24:08;7.80;;;3.65;;
13493;SDS011;6819;50.886;4.332;2022-07-22T04:26:34;7.85;;;3.42;;
13493;SDS011;6819;50.886;4.332;2022-07-22T04:29:01;8.02;;;3.58;;
13493;SDS011;6819;50.886;4.332;2022-07-22T04:31:27;9.45;;;3.75;;
13493;SDS011;6819;50.886;4.332;2022-07-22T04:33:53;8.80;;;2.92;;
13493;SDS011;6819;50.886;4.332;2022-07-22T04:36:19;11.82;;;3.53;;
13493;SDS011;6819;50.886;4.332;2022-07-22T04:38:45;7.93;;;3.70;;
13493;SDS011;6819;50.886;4.332;2022-07-22T04:41:11;8.20;;;3.58;;
13493;SDS011;6819;50.886;4.332;2022-07-22T04:43:37;7.40;;;3.25;;
13493;SDS011;6819;50.886;4.332;2022-07-22T04:46:03;13.07;;;3.60;;
13493;SDS011;6819;50.886;4.332;2022-07-22T04:48:30;10.20;;;3.78;;
13493;SDS011;6819;50.886;4.332;2022-07-22T04:50:59;8.23;;;3.72;;
13493;SDS011;6819;50.886;4.332;2022-07-22T04:53:26;9.18;;;4.28;;
13493;SDS011;6819;50.886;4.332;2022-07-22T04:55:52;6.72;;;3.53;;
13493;SDS011;6819;50.886;4.332;2022-07-22T04:58:18;11.13;;;3.85;;
13493;SDS011;6819;50.886;4.332;2022-07-22T05:00:44;10.73;;;3.53;;
13493;SDS011;6819;50.886;4.332;2022-07-22T05:03:11;11.35;;;3.75;;
13493;SDS011;6819;50.886;4.332;2022-07-22T05:05:38;8.18;;;3.22;;
13493;SDS011;6819;50.886;4.332;2022-07-22T05:08:04;18.48;;;4.25;;
13493;SDS011;6819;50.886;4.332;2022-07-22T05:10:30;10.38;;;4.40;;
13493;SDS011;6819;50.886;4.332;2022-07-22T05:12:57;11.63;;;4.18;;
13493;SDS011;6819;50.886;4.332;2022-07-22T05:15:23;10.32;;;3.75;;
13493;SDS011;6819;50.886;4.332;2022-07-22T05:17:49;12.35;;;3.25;;
13493;SDS011;6819;50.886;4.332;2022-07-22T05:20:15;11.73;;;4.22;;
13493;SDS011;6819;50.886;4.332;2022-07-22T05:22:41;8.05;;;3.80;;
13493;SDS011;6819;50.886;4.332;2022-07-22T05:25:07;11.38;;;4.03;;
13493;SDS011;6819;50.886;4.332;2022-07-22T05:27:34;12.48;;;4.28;;
13493;SDS011;6819;50.886;4.332;2022-07-22T05:30:00;9.73;;;3.80;;
13493;SDS011;6819;50.886;4.332;2022-07-22T05:32:26;11.30;;;4.55;;
13493;SDS011;6819;50.886;4.332;2022-07-22T05:34:52;14.02;;;3.60;;
13493;SDS011;6819;50.886;4.332;2022-07-22T05:37:18;11.23;;;4.10;;
13493;SDS011;6819;50.886;4.332;2022-07-22T05:39:44;9.70;;;4.20;;
13493;SDS011;6819;50.886;4.332;2022-07-22T05:42:10;13.50;;;4.32;;
13493;SDS011;6819;50.886;4.332;2022-07-22T05:44:36;12.18;;;4.50;;
13493;SDS011;6819;50.886;4.332;2022-07-22T05:47:02;15.80;;;4.78;;
13493;SDS011;6819;50.886;4.332;2022-07-22T05:49:28;9.52;;;4.32;;
13493;SDS011;6819;50.886;4.332;2022-07-22T05:51:54;14.57;;;4.13;;
13493;SDS011;6819;50.886;4.332;2022-07-22T05:54:25;14.02;;;4.88;;
13493;SDS011;6819;50.886;4.332;2022-07-22T05:56:51;11.15;;;4.57;;
13493;SDS011;6819;50.886;4.332;2022-07-22T05:59:17;17.90;;;5.18;;
13493;SDS011;6819;50.886;4.332;2022-07-22T06:01:43;20.67;;;5.57;;
13493;SDS011;6819;50.886;4.332;2022-07-22T06:04:09;19.67;;;6.28;;
13493;SDS011;6819;50.886;4.332;2022-07-22T06:06:35;15.02;;;5.38;;
13493;SDS011;6819;50.886;4.332;2022-07-22T06:09:01;14.52;;;5.00;;
13493;SDS011;6819;50.886;4.332;2022-07-22T06:11:27;19.63;;;5.68;;
13493;SDS011;6819;50.886;4.332;2022-07-22T06:13:53;16.00;;;5.90;;
13493;SDS011;6819;50.886;4.332;2022-07-22T06:16:19;15.50;;;5.68;;
13493;SDS011;6819;50.886;4.332;2022-07-22T06:18:45;17.58;;;6.13;;
13493;SDS011;6819;50.886;4.332;2022-07-22T06:21:11;9.60;;;4.90;;
13493;SDS011;6819;50.886;4.332;2022-07-22T06:23:37;8.63;;;3.28;;
13493;SDS011;6819;50.886;4.332;2022-07-22T06:26:03;14.65;;;5.10;;
13493;SDS011;6819;50.886;4.332;2022-07-22T06:28:29;16.20;;;5.90;;
13493;SDS011;6819;50.886;4.332;2022-07-22T06:30:55;16.90;;;6.63;;
13493;SDS011;6819;50.886;4.332;2022-07-22T06:33:21;12.20;;;4.80;;
13493;SDS011;6819;50.886;4.332;2022-07-22T06:35:47;16.20;;;5.18;;
13493;SDS011;6819;50.886;4.332;2022-07-22T06:38:13;17.85;;;6.32;;
13493;SDS011;6819;50.886;4.332;2022-07-22T06:40:39;11.68;;;5.45;;
13493;SDS011;6819;50.886;4.332;2022-07-22T06:43:05;14.38;;;5.38;;
13493;SDS011;6819;50.886;4.332;2022-07-22T06:45:31;17.23;;;5.65;;
13493;SDS011;6819;50.886;4.332;2022-07-22T06:47:57;11.68;;;5.57;;
13493;SDS011;6819;50.886;4.332;2022-07-22T06:50:24;11.82;;;4.45;;
13493;SDS011;6819;50.886;4.332;2022-07-22T06:52:50;12.05;;;4.55;;
13493;SDS011;6819;50.886;4.332;2022-07-22T06:55:16;9.85;;;4.25;;
13493;SDS011;6819;50.886;4.332;2022-07-22T06:57:42;8.52;;;3.88;;
13493;SDS011;6819;50.886;4.332;2022-07-22T07:00:08;12.65;;;4.38;;
13493;SDS011;6819;50.886;4.332;2022-07-22T07:02:35;7.72;;;4.13;;
13493;SDS011;6819;50.886;4.332;2022-07-22T07:05:01;8.35;;;4.20;;
13493;SDS011;6819;50.886;4.332;2022-07-22T07:07:27;13.77;;;4.25;;
13493;SDS011;6819;50.886;4.332;2022-07-22T07:09:53;9.25;;;4.50;;
13493;SDS011;6819;50.886;4.332;2022-07-22T07:12:19;11.23;;;4.88;;
13493;SDS011;6819;50.886;4.332;2022-07-22T07:14:45;12.60;;;4.22;;
13493;SDS011;6819;50.886;4.332;2022-07-22T07:17:11;9.90;;;4.32;;
13493;SDS011;6819;50.886;4.332;2022-07-22T07:19:37;7.03;;;3.92;;
13493;SDS011;6819;50.886;4.332;2022-07-22T07:22:03;12.52;;;3.72;;
13493;SDS011;6819;50.886;4.332;2022-07-22T07:24:29;7.93;;;3.63;;
13493;SDS011;6819;50.886;4.332;2022-07-22T07:26:55;7.43;;;4.00;;
13493;SDS011;6819;50.886;4.332;2022-07-22T07:29:21;7.53;;;3.33;;
13493;SDS011;6819;50.886;4.332;2022-07-22T07:31:48;10.85;;;3.42;;
13493;SDS011;6819;50.886;4.332;2022-07-22T07:34:14;12.48;;;3.85;;
13493;SDS011;6819;50.886;4.332;2022-07-22T07:36:40;12.63;;;4.68;;
13493;SDS011;6819;50.886;4.332;2022-07-22T07:39:06;6.68;;;3.97;;
13493;SDS011;6819;50.886;4.332;2022-07-22T07:41:32;9.45;;;4.47;;
13493;SDS011;6819;50.886;4.332;2022-07-22T07:43:58;9.25;;;4.07;;
13493;SDS011;6819;50.886;4.332;2022-07-22T07:46:24;5.78;;;3.33;;
13493;SDS011;6819;50.886;4.332;2022-07-22T07:48:50;13.30;;;4.43;;
13493;SDS011;6819;50.886;4.332;2022-07-22T07:51:17;11.00;;;4.10;;
13493;SDS011;6819;50.886;4.332;2022-07-22T07:53:43;10.90;;;3.90;;
13493;SDS011;6819;50.886;4.332;2022-07-22T07:56:09;11.10;;;3.97;;
13493;SDS011;6819;50.886;4.332;2022-07-22T07:58:35;7.35;;;3.35;;
13493;SDS011;6819;50.886;4.332;2022-07-22T08:01:01;6.63;;;3.17;;
13493;SDS011;6819;50.886;4.332;2022-07-22T08:03:27;10.13;;;3.70;;
13493;SDS011;6819;50.886;4.332;2022-07-22T08:05:53;8.65;;;4.18;;
13493;SDS011;6819;50.886;4.332;2022-07-22T08:08:19;6.82;;;3.60;;
13493;SDS011;6819;50.886;4.332;2022-07-22T08:10:45;8.98;;;3.95;;
13493;SDS011;6819;50.886;4.332;2022-07-22T08:13:11;5.90;;;3.40;;
13493;SDS011;6819;50.886;4.332;2022-07-22T08:15:37;9.02;;;3.38;;
13493;SDS011;6819;50.886;4.332;2022-07-22T08:18:04;8.15;;;3.10;;
13493;SDS011;6819;50.886;4.332;2022-07-22T08:20:30;7.18;;;3.35;;
13493;SDS011;6819;50.886;4.332;2022-07-22T08:22:56;8.93;;;3.72;;
13493;SDS011;6819;50.886;4.332;2022-07-22T08:25:22;8.63;;;3.35;;
13493;SDS011;6819;50.886;4.332;2022-07-22T08:27:48;9.82;;;4.28;;
13493;SDS011;6819;50.886;4.332;2022-07-22T08:30:15;10.18;;;4.03;;
13493;SDS011;6819;50.886;4.332;2022-07-22T08:32:41;9.07;;;4.07;;
13493;SDS011;6819;50.886;4.332;2022-07-22T08:35:07;10.13;;;3.95;;
13493;SDS011;6819;50.886;4.332;2022-07-22T08:37:34;7.30;;;3.50;;
13493;SDS011;6819;50.886;4.332;2022-07-22T08:40:00;7.50;;;3.38;;
13493;SDS011;6819;50.886;4.332;2022-07-22T08:42:26;11.30;;;3.42;;
13493;SDS011;6819;50.886;4.332;2022-07-22T08:44:52;11.82;;;3.70;;
13493;SDS011;6819;50.886;4.332;2022-07-22T08:47:25;7.07;;;3.22;;
13493;SDS011;6819;50.886;4.332;2022-07-22T08:49:51;5.78;;;3.42;;
13493;SDS011;6819;50.886;4.332;2022-07-22T08:52:17;8.48;;;3.40;;
13493;SDS011;6819;50.886;4.332;2022-07-22T08:54:43;8.50;;;3.38;;
13493;SDS011;6819;50.886;4.332;2022-07-22T08:57:09;8.68;;;3.55;;
13493;SDS011;6819;50.886;4.332;2022-07-22T09:02:20;8.18;;;3.55;;
13493;SDS011;6819;50.886;4.332;2022-07-22T09:04:54;9.82;;;3.42;;
13493;SDS011;6819;50.886;4.332;2022-07-22T09:07:24;7.88;;;3.25;;
13493;SDS011;6819;50.886;4.332;2022-07-22T09:09:50;5.53;;;3.40;;
13493;SDS011;6819;50.886;4.332;2022-07-22T09:12:17;7.07;;;3.42;;
13493;SDS011;6819;50.886;4.332;2022-07-22T09:14:47;9.65;;;3.20;;
13493;SDS011;6819;50.886;4.332;2022-07-22T09:17:30;6.13;;;2.75;;
13493;SDS011;6819;50.886;4.332;2022-07-22T09:19:57;7.13;;;3.20;;
13493;SDS011;6819;50.886;4.332;2022-07-22T09:22:30;5.65;;;3.50;;
13493;SDS011;6819;50.886;4.332;2022-07-22T09:24:56;4.13;;;2.90;;
13493;SDS011;6819;50.886;4.332;2022-07-22T09:27:23;7.07;;;3.10;;
13493;SDS011;6819;50.886;4.332;2022-07-22T09:29:50;6.28;;;3.03;;
13493;SDS011;6819;50.886;4.332;2022-07-22T09:32:17;7.63;;;3.20;;
13493;SDS011;6819;50.886;4.332;2022-07-22T09:34:43;8.60;;;3.38;;
13493;SDS011;6819;50.886;4.332;2022-07-22T09:37:10;8.98;;;3.40;;
13493;SDS011;6819;50.886;4.332;2022-07-22T09:39:37;6.20;;;3.13;;
13493;SDS011;6819;50.886;4.332;2022-07-22T09:42:04;9.20;;;3.20;;
13493;SDS011;6819;50.886;4.332;2022-07-22T09:44:31;7.10;;;3.05;;
13493;SDS011;6819;50.886;4.332;2022-07-22T09:46:57;6.90;;;3.33;;
13493;SDS011;6819;50.886;4.332;2022-07-22T09:49:30;8.52;;;3.15;;
13493;SDS011;6819;50.886;4.332;2022-07-22T09:51:57;8.50;;;3.10;;
13493;SDS011;6819;50.886;4.332;2022-07-22T09:54:23;7.25;;;3.30;;
13493;SDS011;6819;50.886;4.332;2022-07-22T09:56:50;7.68;;;3.22;;
13493;SDS011;6819;50.886;4.332;2022-07-22T09:59:16;6.50;;;2.72;;
13493;SDS011;6819;50.886;4.332;2022-07-22T10:01:42;7.95;;;2.83;;
13493;SDS011;6819;50.886;4.332;2022-07-22T10:04:08;6.90;;;3.00;;
13493;SDS011;6819;50.886;4.332;2022-07-22T10:06:37;6.90;;;3.05;;
13493;SDS011;6819;50.886;4.332;2022-07-22T10:09:03;7.10;;;3.03;;
13493;SDS011;6819;50.886;4.332;2022-07-22T10:11:30;8.63;;;3.42;;
13493;SDS011;6819;50.886;4.332;2022-07-22T10:13:56;5.65;;;3.25;;
13493;SDS011;6819;50.886;4.332;2022-07-22T10:16:22;5.13;;;3.00;;
13493;SDS011;6819;50.886;4.332;2022-07-22T10:18:48;6.80;;;3.25;;
13493;SDS011;6819;50.886;4.332;2022-07-22T10:21:15;6.00;;;3.30;;
13493;SDS011;6819;50.886;4.332;2022-07-22T10:45:29;7.25;;;3.13;;
13493;SDS011;6819;50.886;4.332;2022-07-22T10:47:57;7.70;;;3.40;;
13493;SDS011;6819;50.886;4.332;2022-07-22T10:55:34;9.15;;;3.80;;
13493;SDS011;6819;50.886;4.332;2022-07-22T10:58:09;6.70;;;3.13;;
13493;SDS011;6819;50.886;4.332;2022-07-22T11:00:46;7.55;;;3.17;;
13493;SDS011;6819;50.886;4.332;2022-07-22T11:03:13;8.57;;;3.13;;
13493;SDS011;6819;50.886;4.332;2022-07-22T11:05:49;10.77;;;3.45;;
13493;SDS011;6819;50.886;4.332;2022-07-22T11:08:15;6.57;;;3.47;;
13493;SDS011;6819;50.886;4.332;2022-07-22T11:10:47;6.28;;;3.13;;
13493;SDS011;6819;50.886;4.332;2022-07-22T11:13:17;6.03;;;3.00;;
13493;SDS011;6819;50.886;4.332;2022-07-22T11:15:55;7.20;;;3.03;;
13493;SDS011;6819;50.886;4.332;2022-07-22T11:18:21;6.28;;;3.75;;
13493;SDS011;6819;50.886;4.332;2022-07-22T11:20:47;6.63;;;3.03;;
13493;SDS011;6819;50.886;4.332;2022-07-22T11:23:14;5.32;;;3.35;;
13493;SDS011;6819;50.886;4.332;2022-07-22T11:25:41;7.35;;;3.80;;
13493;SDS011;6819;50.886;4.332;2022-07-22T11:28:08;11.10;;;3.70;;
13493;SDS011;6819;50.886;4.332;2022-07-22T11:30:34;6.25;;;3.33;;
13493;SDS011;6819;50.886;4.332;2022-07-22T11:33:01;8.55;;;3.15;;
13493;SDS011;6819;50.886;4.332;2022-07-22T11:35:27;5.80;;;2.92;;
13493;SDS011;6819;50.886;4.332;2022-07-22T11:37:56;6.75;;;3.17;;
13493;SDS011;6819;50.886;4.332;2022-07-22T11:40:23;9.43;;;3.80;;
13493;SDS011;6819;50.886;4.332;2022-07-22T11:43:00;7.68;;;3.22;;
13493;SDS011;6819;50.886;4.332;2022-07-22T11:45:26;9.57;;;4.00;;
13493;SDS011;6819;50.886;4.332;2022-07-22T11:47:52;8.63;;;3.70;;
13493;SDS011;6819;50.886;4.332;2022-07-22T11:50:28;7.50;;;3.10;;
13493;SDS011;6819;50.886;4.332;2022-07-22T11:52:54;5.68;;;3.50;;
13493;SDS011;6819;50.886;4.332;2022-07-22T11:55:20;5.85;;;3.05;;
13493;SDS011;6819;50.886;4.332;2022-07-22T11:57:47;8.55;;;3.67;;
13493;SDS011;6819;50.886;4.332;2022-07-22T12:00:13;6.93;;;3.20;;
13493;SDS011;6819;50.886;4.332;2022-07-22T12:02:40;6.30;;;3.35;;
13493;SDS011;6819;50.886;4.332;2022-07-22T12:05:06;5.93;;;3.55;;
13493;SDS011;6819;50.886;4.332;2022-07-22T12:07:33;8.18;;;3.40;;
13493;SDS011;6819;50.886;4.332;2022-07-22T12:10:01;6.65;;;2.97;;
13493;SDS011;6819;50.886;4.332;2022-07-22T12:12:40;6.90;;;3.67;;
13493;SDS011;6819;50.886;4.332;2022-07-22T12:15:07;5.68;;;3.60;;
13493;SDS011;6819;50.886;4.332;2022-07-22T12:17:34;9.18;;;3.33;;
13493;SDS011;6819;50.886;4.332;2022-07-22T12:20:10;9.02;;;3.40;;
13493;SDS011;6819;50.886;4.332;2022-07-22T12:22:44;9.23;;;3.50;;
13493;SDS011;6819;50.886;4.332;2022-07-22T12:25:10;6.40;;;3.40;;
13493;SDS011;6819;50.886;4.332;2022-07-22T12:27:36;10.52;;;4.47;;
13493;SDS011;6819;50.886;4.332;2022-07-22T12:30:10;7.53;;;3.63;;
13493;SDS011;6819;50.886;4.332;2022-07-22T12:32:37;5.25;;;3.42;;
13493;SDS011;6819;50.886;4.332;2022-07-22T12:35:11;4.90;;;3.75;;
13493;SDS011;6819;50.886;4.332;2022-07-22T12:37:43;7.88;;;3.78;;
13493;SDS011;6819;50.886;4.332;2022-07-22T12:40:10;6.72;;;3.50;;
13493;SDS011;6819;50.886;4.332;2022-07-22T12:42:43;5.00;;;3.17;;
13493;SDS011;6819;50.886;4.332;2022-07-22T12:45:16;7.38;;;3.63;;
13493;SDS011;6819;50.886;4.332;2022-07-22T12:53:03;10.75;;;3.60;;
13493;SDS011;6819;50.886;4.332;2022-07-22T12:55:30;7.22;;;4.05;;
13493;SDS011;6819;50.886;4.332;2022-07-22T12:57:56;7.38;;;3.53;;
13493;SDS011;6819;50.886;4.332;2022-07-22T13:00:24;4.47;;;3.30;;
13493;SDS011;6819;50.886;4.332;2022-07-22T13:02:51;9.75;;;3.83;;
13493;SDS011;6819;50.886;4.332;2022-07-22T13:05:17;5.53;;;3.63;;
13493;SDS011;6819;50.886;4.332;2022-07-22T13:07:43;7.70;;;3.53;;
13493;SDS011;6819;50.886;4.332;2022-07-22T13:10:10;6.80;;;3.58;;
13493;SDS011;6819;50.886;4.332;2022-07-22T13:12:37;6.88;;;4.15;;
13493;SDS011;6819;50.886;4.332;2022-07-22T13:15:03;7.22;;;3.45;;
13493;SDS011;6819;50.886;4.332;2022-07-22T13:17:30;5.00;;;3.17;;
13493;SDS011;6819;50.886;4.332;2022-07-22T13:19:56;10.98;;;3.58;;
13493;SDS011;6819;50.886;4.332;2022-07-22T13:22:22;6.75;;;3.47;;
13493;SDS011;6819;50.886;4.332;2022-07-22T13:24:48;9.93;;;3.90;;
13493;SDS011;6819;50.886;4.332;2022-07-22T13:27:14;6.40;;;3.80;;
13493;SDS011;6819;50.886;4.332;2022-07-22T13:29:40;7.47;;;4.03;;
13493;SDS011;6819;50.886;4.332;2022-07-22T13:32:06;9.40;;;3.78;;
13493;SDS011;6819;50.886;4.332;2022-07-22T13:34:32;7.07;;;4.28;;
13493;SDS011;6819;50.886;4.332;2022-07-22T13:36:59;5.40;;;3.35;;
13493;SDS011;6819;50.886;4.332;2022-07-22T13:39:25;7.70;;;4.18;;
13493;SDS011;6819;50.886;4.332;2022-07-22T13:41:51;6.03;;;3.80;;
13493;SDS011;6819;50.886;4.332;2022-07-22T13:44:17;6.18;;;3.47;;
13493;SDS011;6819;50.886;4.332;2022-07-22T13:46:43;5.57;;;3.60;;
13493;SDS011;6819;50.886;4.332;2022-07-22T13:49:10;5.93;;;3.42;;
13493;SDS011;6819;50.886;4.332;2022-07-22T13:51:36;8.25;;;4.10;;
13493;SDS011;6819;50.886;4.332;2022-07-22T13:54:03;9.48;;;3.97;;
13493;SDS011;6819;50.886;4.332;2022-07-22T13:56:30;7.80;;;3.65;;
13493;SDS011;6819;50.886;4.332;2022-07-22T13:58:57;6.82;;;3.67;;
13493;SDS011;6819;50.886;4.332;2022-07-22T14:01:23;6.93;;;3.78;;
13493;SDS011;6819;50.886;4.332;2022-07-22T14:03:49;5.97;;;4.07;;
13493;SDS011;6819;50.886;4.332;2022-07-22T14:06:16;6.68;;;3.88;;
13493;SDS011;6819;50.886;4.332;2022-07-22T14:08:42;5.30;;;4.03;;
13493;SDS011;6819;50.886;4.332;2022-07-22T14:11:08;7.28;;;3.47;;
13493;SDS011;6819;50.886;4.332;2022-07-22T14:13:34;10.23;;;4.35;;
13493;SDS011;6819;50.886;4.332;2022-07-22T14:16:00;6.50;;;3.95;;
13493;SDS011;6819;50.886;4.332;2022-07-22T14:18:46;6.68;;;4.13;;
13493;SDS011;6819;50.886;4.332;2022-07-22T14:21:12;9.25;;;4.43;;
13493;SDS011;6819;50.886;4.332;2022-07-22T14:23:38;7.75;;;4.50;;
13493;SDS011;6819;50.886;4.332;2022-07-22T14:26:04;6.80;;;3.90;;
13493;SDS011;6819;50.886;4.332;2022-07-22T14:28:30;6.32;;;3.78;;
13493;SDS011;6819;50.886;4.332;2022-07-22T14:30:57;5.35;;;4.22;;
13493;SDS011;6819;50.886;4.332;2022-07-22T14:33:23;9.02;;;4.63;;
13493;SDS011;6819;50.886;4.332;2022-07-22T14:35:49;10.30;;;4.82;;
13493;SDS011;6819;50.886;4.332;2022-07-22T14:38:15;9.45;;;4.40;;
13493;SDS011;6819;50.886;4.332;2022-07-22T14:40:42;7.15;;;4.63;;
13493;SDS011;6819;50.886;4.332;2022-07-22T14:43:08;9.85;;;4.55;;
13493;SDS011;6819;50.886;4.332;2022-07-22T14:45:34;4.75;;;3.40;;
13493;SDS011;6819;50.886;4.332;2022-07-22T14:48:00;6.88;;;3.88;;
13493;SDS011;6819;50.886;4.332;2022-07-22T14:50:26;8.75;;;4.70;;
13493;SDS011;6819;50.886;4.332;2022-07-22T14:52:52;11.00;;;4.75;;
13493;SDS011;6819;50.886;4.332;2022-07-22T14:55:18;9.95;;;4.72;;
13493;SDS011;6819;50.886;4.332;2022-07-22T14:57:44;9.63;;;4.05;;
13493;SDS011;6819;50.886;4.332;2022-07-22T15:00:10;6.05;;;4.40;;
13493;SDS011;6819;50.886;4.332;2022-07-22T15:02:36;5.88;;;4.50;;
13493;SDS011;6819;50.886;4.332;2022-07-22T15:05:03;5.90;;;4.03;;
13493;SDS011;6819;50.886;4.332;2022-07-22T15:07:29;8.02;;;4.18;;
13493;SDS011;6819;50.886;4.332;2022-07-22T15:09:55;6.13;;;4.25;;
13493;SDS011;6819;50.886;4.332;2022-07-22T15:12:21;5.75;;;3.97;;
13493;SDS011;6819;50.886;4.332;2022-07-22T15:14:47;7.18;;;3.95;;
13493;SDS011;6819;50.886;4.332;2022-07-22T15:17:13;12.63;;;4.28;;
13493;SDS011;6819;50.886;4.332;2022-07-22T15:19:39;8.00;;;5.20;;
13493;SDS011;6819;50.886;4.332;2022-07-22T15:22:05;9.15;;;3.95;;
13493;SDS011;6819;50.886;4.332;2022-07-22T15:24:31;8.07;;;4.40;;
13493;SDS011;6819;50.886;4.332;2022-07-22T15:26:57;8.20;;;4.68;;
13493;SDS011;6819;50.886;4.332;2022-07-22T15:29:23;6.32;;;4.30;;